createdAt,value
2023-01-25T00:00:15.267Z,2.60
2023-01-25T00:02:43.711Z,2.60
2023-01-25T00:05:12.132Z,2.60
2023-01-25T00:07:40.644Z,2.70
2023-01-25T00:10:12.010Z,2.70
2023-01-25T00:12:40.407Z,2.60
2023-01-25T00:15:10.466Z,2.50
2023-01-25T00:17:39.161Z,2.50
2023-01-25T00:20:08.891Z,2.50
2023-01-25T00:22:37.379Z,2.50
2023-01-25T00:25:06.787Z,2.50
2023-01-25T00:27:36.854Z,2.50
2023-01-25T00:30:06.241Z,2.50
2023-01-25T00:32:48.215Z,2.50
2023-01-25T00:35:16.953Z,2.50
2023-01-25T00:37:49.988Z,2.40
2023-01-25T00:40:20.105Z,2.50
2023-01-25T00:42:49.995Z,2.50
2023-01-25T00:45:19.215Z,2.60
2023-01-25T00:47:47.679Z,2.60
2023-01-25T00:50:16.538Z,2.60
2023-01-25T00:52:44.960Z,2.60
2023-01-25T00:55:13.843Z,2.60
2023-01-25T00:57:42.228Z,2.60
2023-01-25T01:00:13.765Z,2.60
2023-01-25T01:02:45.020Z,2.60
2023-01-25T01:05:13.654Z,2.60
2023-01-25T01:07:42.115Z,2.60
2023-01-25T01:10:11.534Z,2.50
2023-01-25T01:12:40.006Z,2.40
2023-01-25T01:15:09.994Z,2.50
2023-01-25T01:17:39.987Z,2.50
2023-01-25T01:20:09.073Z,2.50
2023-01-25T01:22:37.580Z,2.50
2023-01-25T01:25:07.497Z,2.40
2023-01-25T01:27:36.070Z,2.40
2023-01-25T01:30:04.732Z,2.40
2023-01-25T01:32:33.435Z,2.40
2023-01-25T01:35:03.291Z,2.30
2023-01-25T01:37:31.768Z,2.30
2023-01-25T01:40:00.442Z,2.30
2023-01-25T01:42:28.941Z,2.30
2023-01-25T01:44:57.309Z,2.20
2023-01-25T01:47:35.251Z,2.20
2023-01-25T01:50:17.281Z,2.30
2023-01-25T01:52:45.830Z,2.30
2023-01-25T01:55:18.491Z,2.30
2023-01-25T01:57:51.531Z,2.30
2023-01-25T02:00:22.963Z,2.30
2023-01-25T02:02:52.759Z,2.40
2023-01-25T02:05:28.574Z,2.30
2023-01-25T02:07:58.803Z,2.30
2023-01-25T02:10:28.539Z,2.30
2023-01-25T02:12:58.101Z,2.20
2023-01-25T02:15:30.229Z,2.20
2023-01-25T02:17:58.720Z,2.10
2023-01-25T02:20:35.581Z,2.10
2023-01-25T02:23:12.495Z,2.10
2023-01-25T02:25:42.721Z,2.10
2023-01-25T02:28:16.762Z,2.10
2023-01-25T02:30:46.380Z,2.20
2023-01-25T02:33:14.870Z,2.20
2023-01-25T02:35:47.399Z,2.20
2023-01-25T02:38:18.064Z,2.20
2023-01-25T02:40:52.980Z,2.20
2023-01-25T02:43:21.809Z,2.10
2023-01-25T02:45:56.599Z,2.10
2023-01-25T02:48:25.080Z,2.10
2023-01-25T02:50:53.545Z,2.10
2023-01-25T02:53:22.013Z,2.10
2023-01-25T02:55:51.851Z,2.10
2023-01-25T02:58:20.350Z,2.20
2023-01-25T03:00:49.337Z,2.20
2023-01-25T03:03:17.801Z,2.20
2023-01-25T03:05:46.294Z,2.10
2023-01-25T03:08:14.762Z,2.10
2023-01-25T03:10:43.342Z,2.10
2023-01-25T03:13:13.198Z,2.10
2023-01-25T03:15:41.729Z,2.10
2023-01-25T03:18:10.136Z,2.10
2023-01-25T03:20:38.571Z,2.10
2023-01-25T03:23:07.074Z,2.20
2023-01-25T03:25:35.492Z,2.20
2023-01-25T03:28:04.000Z,2.20
2023-01-25T03:30:33.884Z,2.20
2023-01-25T03:33:03.425Z,2.10
2023-01-25T03:35:32.309Z,2.10
2023-01-25T03:38:00.824Z,2.10
2023-01-25T03:40:29.777Z,2.10
2023-01-25T03:42:58.262Z,2.10
2023-01-25T03:45:26.751Z,2.20
2023-01-25T03:47:56.572Z,2.10
2023-01-25T03:50:25.001Z,2.10
2023-01-25T03:52:59.522Z,2.00
2023-01-25T03:55:29.611Z,2.00
2023-01-25T03:57:58.632Z,2.00
2023-01-25T04:00:27.263Z,2.00
2023-01-25T04:02:57.064Z,1.90
2023-01-25T04:05:25.667Z,2.00
2023-01-25T04:07:54.483Z,2.00
2023-01-25T04:10:23.873Z,2.00
2023-01-25T04:12:52.252Z,2.00
2023-01-25T04:15:20.712Z,2.00
2023-01-25T04:17:51.741Z,1.90
2023-01-25T04:20:21.631Z,1.90
2023-01-25T04:22:50.051Z,1.90
2023-01-25T04:25:18.526Z,1.90
2023-01-25T04:27:47.173Z,1.80
2023-01-25T04:30:15.913Z,1.70
2023-01-25T04:32:44.493Z,1.70
2023-01-25T04:35:13.114Z,1.70
2023-01-25T04:37:43.163Z,1.60
2023-01-25T04:40:17.148Z,1.60
2023-01-25T04:42:45.562Z,1.60
2023-01-25T04:45:13.952Z,1.70
2023-01-25T04:47:43.483Z,1.70
2023-01-25T04:50:12.425Z,1.70
2023-01-25T04:52:42.314Z,1.70
2023-01-25T04:55:11.475Z,1.70
2023-01-25T04:57:40.185Z,1.70
2023-01-25T05:00:12.378Z,1.70
2023-01-25T05:02:43.593Z,1.70
2023-01-25T05:05:13.003Z,1.80
2023-01-25T05:07:42.907Z,1.80
2023-01-25T05:10:12.580Z,1.80
2023-01-25T05:12:41.562Z,1.80
2023-01-25T05:15:11.283Z,1.70
2023-01-25T05:17:40.122Z,1.60
2023-01-25T05:20:09.422Z,1.60
2023-01-25T05:22:37.962Z,1.60
2023-01-25T05:25:28.674Z,1.60
2023-01-25T05:27:56.039Z,1.60
2023-01-25T05:30:24.510Z,1.50
2023-01-25T05:32:53.003Z,1.50
2023-01-25T05:35:21.586Z,1.50
2023-01-25T05:37:50.075Z,1.40
2023-01-25T05:40:20.092Z,1.40
2023-01-25T05:42:55.439Z,1.40
2023-01-25T05:45:24.124Z,1.50
2023-01-25T05:47:56.160Z,1.50
2023-01-25T05:50:26.048Z,1.40
2023-01-25T05:52:54.914Z,1.50
2023-01-25T05:55:24.776Z,1.50
2023-01-25T05:57:56.247Z,1.40
2023-01-25T06:00:25.279Z,1.50
2023-01-25T06:03:09.234Z,1.50
2023-01-25T06:05:37.966Z,1.50
2023-01-25T06:08:06.591Z,1.50
2023-01-25T06:10:37.293Z,1.50
2023-01-25T06:13:05.770Z,1.50
2023-01-25T06:15:34.434Z,1.50
2023-01-25T06:18:03.177Z,1.50
2023-01-25T06:20:31.611Z,1.50
2023-01-25T06:23:00.141Z,1.50
2023-01-25T06:25:28.731Z,1.60
2023-01-25T06:27:58.553Z,1.50
2023-01-25T06:30:26.953Z,1.60
2023-01-25T06:32:55.379Z,1.60
2023-01-25T06:35:23.804Z,1.50
2023-01-25T06:37:52.221Z,1.40
2023-01-25T06:40:20.843Z,1.40
2023-01-25T06:42:49.481Z,1.50
2023-01-25T06:45:19.341Z,1.50
2023-01-25T06:47:52.198Z,1.40
2023-01-25T06:50:20.702Z,1.40
2023-01-25T06:52:53.765Z,1.40
2023-01-25T06:55:22.583Z,1.40
2023-01-25T06:57:51.361Z,1.40
2023-01-25T07:00:21.835Z,1.40
2023-01-25T07:02:50.329Z,1.40
2023-01-25T07:05:18.930Z,1.40
2023-01-25T07:07:47.546Z,1.40
2023-01-25T07:10:22.241Z,1.30
2023-01-25T07:12:50.740Z,1.30
2023-01-25T07:15:20.672Z,1.30
2023-01-25T07:17:49.079Z,1.30
2023-01-25T07:20:18.501Z,1.20
2023-01-25T07:22:47.002Z,1.30
2023-01-25T07:25:16.014Z,1.40
2023-01-25T07:27:44.502Z,1.30
2023-01-25T07:30:13.743Z,1.30
2023-01-25T07:32:44.692Z,1.30
2023-01-25T07:35:13.121Z,1.20
2023-01-25T07:37:41.560Z,1.20
2023-01-25T07:40:11.241Z,1.20
2023-01-25T07:42:39.930Z,1.20
2023-01-25T07:45:10.086Z,1.20
2023-01-25T07:47:38.785Z,1.20
2023-01-25T07:50:10.000Z,1.10
2023-01-25T07:52:38.773Z,1.10
2023-01-25T07:55:07.867Z,1.00
2023-01-25T07:57:36.592Z,1.10
2023-01-25T08:00:07.331Z,1.10
2023-01-25T08:02:35.814Z,1.10
2023-01-25T08:05:04.372Z,1.10
2023-01-25T08:07:34.277Z,1.10
2023-01-25T08:10:03.103Z,1.10
2023-01-25T08:12:31.677Z,1.20
2023-01-25T08:15:00.185Z,1.20
2023-01-25T08:17:32.676Z,1.30
2023-01-25T08:20:01.833Z,1.30
2023-01-25T08:22:30.242Z,1.30
2023-01-25T08:25:01.277Z,1.20
2023-01-25T08:27:30.219Z,1.20
2023-01-25T08:29:58.653Z,1.20
2023-01-25T08:32:27.100Z,1.20
2023-01-25T08:34:55.605Z,1.20
2023-01-25T08:37:24.037Z,1.20
2023-01-25T08:39:52.466Z,1.20
2023-01-25T08:42:22.602Z,1.10
2023-01-25T08:44:51.038Z,1.00
2023-01-25T08:47:19.456Z,1.00
2023-01-25T08:49:47.898Z,1.10
2023-01-25T08:52:16.285Z,1.10
2023-01-25T08:54:45.062Z,1.10
2023-01-25T08:57:14.706Z,1.10
2023-01-25T08:59:44.772Z,1.20
2023-01-25T09:02:13.940Z,1.20
2023-01-25T09:04:42.426Z,1.30
2023-01-25T09:07:10.834Z,1.30
2023-01-25T09:09:39.252Z,1.30
2023-01-25T09:12:08.222Z,1.20
2023-01-25T09:14:37.722Z,1.20
2023-01-25T09:17:07.583Z,1.20
2023-01-25T09:19:36.052Z,1.20
2023-01-25T09:22:04.758Z,1.20
2023-01-25T09:24:36.980Z,1.10
2023-01-25T09:27:06.047Z,1.20
2023-01-25T09:29:34.542Z,1.20
2023-01-25T09:32:03.381Z,1.20
2023-01-25T09:34:33.361Z,1.30
2023-01-25T09:37:02.011Z,1.20
2023-01-25T09:39:30.482Z,1.20
2023-01-25T09:42:14.998Z,1.20
2023-01-25T09:45:08.543Z,1.20
2023-01-25T09:47:44.970Z,1.20
2023-01-25T09:50:36.801Z,1.20
2023-01-25T09:53:26.261Z,1.20
2023-01-25T09:55:59.829Z,1.30
2023-01-25T09:58:34.072Z,1.30
2023-01-25T10:01:38.215Z,1.30
2023-01-25T10:04:13.805Z,1.30
2023-01-25T10:06:55.259Z,1.20
2023-01-25T10:09:36.215Z,1.30
2023-01-25T10:12:23.781Z,1.20
2023-01-25T10:14:52.706Z,1.20
2023-01-25T10:17:30.251Z,1.30
2023-01-25T10:20:16.727Z,1.30
2023-01-25T10:22:52.101Z,1.30
2023-01-25T10:25:30.711Z,1.30
2023-01-25T10:28:25.958Z,1.30
2023-01-25T10:30:59.552Z,1.30
2023-01-25T10:33:29.675Z,1.40
2023-01-25T10:36:02.138Z,1.40
2023-01-25T10:38:36.461Z,1.30
2023-01-25T10:41:11.099Z,1.40
2023-01-25T10:43:40.488Z,1.40
2023-01-25T10:46:22.903Z,1.50
2023-01-25T10:48:51.446Z,1.40
2023-01-25T10:51:40.599Z,1.40
2023-01-25T10:54:16.368Z,1.40
2023-01-25T10:56:46.765Z,1.40
2023-01-25T10:59:23.295Z,1.40
2023-01-25T11:01:52.315Z,1.40
2023-01-25T11:04:33.377Z,1.40
2023-01-25T11:07:02.787Z,1.30
2023-01-25T11:09:35.858Z,1.30
2023-01-25T11:12:08.012Z,1.30
2023-01-25T11:14:36.477Z,1.30
2023-01-25T11:17:06.648Z,1.30
2023-01-25T11:19:37.522Z,1.40
2023-01-25T11:22:21.192Z,1.40
2023-01-25T11:24:51.419Z,1.40
2023-01-25T11:27:21.891Z,1.50
2023-01-25T11:30:10.904Z,1.50
2023-01-25T11:32:41.399Z,1.60
2023-01-25T11:35:15.790Z,1.60
2023-01-25T11:38:00.377Z,1.50
2023-01-25T11:40:38.313Z,1.50
2023-01-25T11:43:23.492Z,1.50
2023-01-25T11:46:17.108Z,1.40
2023-01-25T11:49:13.061Z,1.40
2023-01-25T11:51:52.352Z,1.40
2023-01-25T11:54:50.410Z,1.40
2023-01-25T11:57:35.172Z,1.50
2023-01-25T12:00:25.379Z,1.50
2023-01-25T12:03:22.566Z,1.50
2023-01-25T12:05:58.715Z,1.40
2023-01-25T12:08:47.687Z,1.30
2023-01-25T12:11:26.975Z,1.30
2023-01-25T12:14:06.827Z,1.30
2023-01-25T12:16:52.937Z,1.30
2023-01-25T12:19:45.386Z,1.20
2023-01-25T12:22:34.471Z,1.20
2023-01-25T12:25:14.467Z,1.20
2023-01-25T12:27:55.355Z,1.30
2023-01-25T12:30:32.096Z,1.20
2023-01-25T12:33:14.462Z,1.30
2023-01-25T12:35:47.725Z,1.30
2023-01-25T12:38:21.360Z,1.30
2023-01-25T12:40:54.631Z,1.20
2023-01-25T12:43:28.785Z,1.10
2023-01-25T12:46:00.353Z,1.20
2023-01-25T12:48:35.189Z,1.20
2023-01-25T12:51:03.620Z,1.20
2023-01-25T12:53:38.169Z,1.20
2023-01-25T12:56:08.707Z,1.10
2023-01-25T12:58:43.966Z,1.10
2023-01-25T13:01:25.326Z,1.10
2023-01-25T13:04:06.714Z,1.20
2023-01-25T13:06:42.604Z,1.30
2023-01-25T13:09:16.701Z,1.20
2023-01-25T13:11:47.566Z,1.30
2023-01-25T13:14:36.201Z,1.30
2023-01-25T13:17:38.222Z,1.20
2023-01-25T13:20:49.679Z,1.30
2023-01-25T13:23:33.137Z,1.30
2023-01-25T13:26:37.154Z,1.30
2023-01-25T13:29:05.747Z,1.30
2023-01-25T13:31:52.413Z,1.40
2023-01-25T13:34:58.413Z,1.40
2023-01-25T13:37:30.460Z,1.30
2023-01-25T13:40:08.288Z,1.30
2023-01-25T13:42:38.113Z,1.30
2023-01-25T13:45:18.678Z,1.30
2023-01-25T13:48:01.892Z,1.20
2023-01-25T13:50:34.460Z,1.30
2023-01-25T13:53:06.712Z,1.20
2023-01-25T13:55:41.814Z,1.10
2023-01-25T13:58:11.764Z,1.10
2023-01-25T14:00:48.314Z,1.10
2023-01-25T14:03:16.760Z,1.10
2023-01-25T14:05:51.573Z,1.20
2023-01-25T14:08:22.244Z,1.20
2023-01-25T14:10:51.403Z,1.20
2023-01-25T14:13:20.202Z,1.20
2023-01-25T14:15:57.493Z,1.20
2023-01-25T14:18:31.540Z,1.30
2023-01-25T14:21:16.198Z,1.20
2023-01-25T14:23:48.777Z,1.20
2023-01-25T14:26:18.701Z,1.20
2023-01-25T14:28:59.206Z,1.20
2023-01-25T14:31:34.687Z,1.20
2023-01-25T14:34:05.085Z,1.20
2023-01-25T14:36:35.449Z,1.30
2023-01-25T14:39:18.131Z,1.30
2023-01-25T14:42:00.954Z,1.20
2023-01-25T14:44:31.834Z,1.20
2023-01-25T14:47:23.976Z,1.10
2023-01-25T14:49:52.374Z,1.10
2023-01-25T14:52:25.956Z,1.10
2023-01-25T14:54:58.651Z,1.10
2023-01-25T14:57:34.707Z,1.10
2023-01-25T15:00:05.282Z,1.20
2023-01-25T15:02:40.432Z,1.20
2023-01-25T15:05:20.021Z,1.20
2023-01-25T15:07:50.598Z,1.10
2023-01-25T15:10:27.189Z,1.10
2023-01-25T15:13:13.236Z,1.10
2023-01-25T15:15:52.881Z,1.10
2023-01-25T15:18:43.091Z,1.00
2023-01-25T15:21:12.982Z,0.90
2023-01-25T15:23:43.433Z,0.90
2023-01-25T15:26:21.745Z,0.90
2023-01-25T15:28:50.677Z,0.80
2023-01-25T15:31:21.023Z,0.80
2023-01-25T15:33:50.291Z,0.80
2023-01-25T15:36:19.751Z,0.70
2023-01-25T15:38:49.903Z,0.90
2023-01-25T15:41:21.569Z,0.90
2023-01-25T15:43:52.281Z,0.90
2023-01-25T15:46:24.076Z,0.90
2023-01-25T15:48:54.038Z,0.90
2023-01-25T15:51:23.996Z,0.90
2023-01-25T15:53:53.102Z,0.90
2023-01-25T15:56:27.471Z,1.00
2023-01-25T15:58:59.419Z,1.10
2023-01-25T16:01:30.022Z,1.00
2023-01-25T16:04:00.155Z,0.90
2023-01-25T16:06:38.968Z,0.90
2023-01-25T16:09:18.665Z,0.90
2023-01-25T16:11:51.222Z,1.00
2023-01-25T16:14:20.189Z,0.90
2023-01-25T16:16:50.677Z,0.90
2023-01-25T16:19:22.197Z,1.00
2023-01-25T16:21:51.283Z,1.00
2023-01-25T16:24:20.537Z,0.90
2023-01-25T16:26:54.627Z,0.90
2023-01-25T16:29:23.960Z,0.80
2023-01-25T16:31:53.725Z,0.80
2023-01-25T16:34:22.788Z,0.80
2023-01-25T16:36:53.371Z,0.80
2023-01-25T16:39:23.479Z,0.80
2023-01-25T16:41:53.959Z,0.70
2023-01-25T16:44:22.570Z,0.80
2023-01-25T16:46:51.663Z,0.90
2023-01-25T16:49:23.129Z,0.90
2023-01-25T16:51:52.072Z,0.80
2023-01-25T16:54:21.113Z,0.80
2023-01-25T16:56:50.360Z,0.80
2023-01-25T16:59:23.069Z,0.80
2023-01-25T17:01:51.380Z,0.80
2023-01-25T17:04:21.333Z,0.80
2023-01-25T17:06:53.487Z,0.80
2023-01-25T17:09:25.520Z,0.90
2023-01-25T17:11:55.082Z,0.90
2023-01-25T17:14:25.675Z,0.90
2023-01-25T17:16:57.315Z,0.90
2023-01-25T17:19:26.622Z,0.90
2023-01-25T17:21:55.316Z,0.90
2023-01-25T17:24:24.006Z,0.90
2023-01-25T17:26:52.974Z,1.00
2023-01-25T17:29:23.123Z,1.00
2023-01-25T17:31:54.149Z,1.00
2023-01-25T17:34:23.196Z,1.10
2023-01-25T17:36:53.122Z,1.10
2023-01-25T17:39:22.869Z,1.20
2023-01-25T17:41:53.315Z,1.20
2023-01-25T17:44:23.664Z,1.20
2023-01-25T17:46:54.532Z,1.20
2023-01-25T17:49:25.000Z,1.20
2023-01-25T17:51:53.963Z,1.10
2023-01-25T17:54:27.257Z,1.10
2023-01-25T17:56:56.719Z,1.10
2023-01-25T17:59:25.630Z,1.10
2023-01-25T18:01:56.218Z,1.10
2023-01-25T18:04:25.686Z,1.20
2023-01-25T18:06:54.933Z,1.20
2023-01-25T18:09:24.187Z,1.30
2023-01-25T18:11:53.679Z,1.30
2023-01-25T18:14:22.935Z,1.30
2023-01-25T18:16:51.740Z,1.30
2023-01-25T18:19:22.613Z,1.30
2023-01-25T18:21:52.789Z,1.30
2023-01-25T18:24:27.415Z,1.30
2023-01-25T18:27:01.566Z,1.30
2023-01-25T18:29:47.024Z,1.30
2023-01-25T18:32:16.405Z,1.30
2023-01-25T18:34:46.999Z,1.30
2023-01-25T18:37:29.475Z,1.20
2023-01-25T18:40:03.678Z,1.20
2023-01-25T18:42:32.805Z,1.20
2023-01-25T18:45:01.417Z,1.10
2023-01-25T18:47:31.673Z,1.00
2023-01-25T18:50:02.356Z,1.00
2023-01-25T18:52:30.768Z,1.00
2023-01-25T18:54:59.548Z,1.00
2023-01-25T18:57:28.900Z,1.00
2023-01-25T18:59:59.865Z,1.00
2023-01-25T19:02:29.751Z,1.10
2023-01-25T19:05:00.452Z,1.00
2023-01-25T19:07:32.359Z,1.00
2023-01-25T19:10:00.985Z,1.10
2023-01-25T19:12:31.260Z,1.10
2023-01-25T19:15:01.345Z,1.10
2023-01-25T19:17:34.330Z,1.00
2023-01-25T19:20:14.441Z,1.00
2023-01-25T19:22:48.180Z,1.00
2023-01-25T19:25:21.179Z,1.00
2023-01-25T19:27:50.722Z,1.00
2023-01-25T19:30:19.617Z,1.00
2023-01-25T19:32:49.241Z,1.00
2023-01-25T19:35:27.450Z,1.00
2023-01-25T19:38:03.787Z,1.00
2023-01-25T19:40:32.502Z,0.90
2023-01-25T19:43:01.191Z,0.90
2023-01-25T19:45:33.648Z,0.90
2023-01-25T19:48:08.976Z,0.90
2023-01-25T19:50:43.640Z,1.00
2023-01-25T19:53:28.934Z,1.00
2023-01-25T19:56:07.187Z,0.90
2023-01-25T19:58:41.380Z,0.90
2023-01-25T20:01:11.234Z,1.00
2023-01-25T20:03:42.583Z,0.90
2023-01-25T20:06:15.654Z,0.90
2023-01-25T20:08:58.758Z,0.90
2023-01-25T20:11:32.223Z,0.90
2023-01-25T20:14:10.039Z,0.80
2023-01-25T20:16:40.946Z,0.80
2023-01-25T20:19:16.777Z,0.80
2023-01-25T20:21:45.709Z,0.80
2023-01-25T20:24:16.535Z,0.80
2023-01-25T20:26:45.089Z,0.80
2023-01-25T20:29:15.475Z,0.70
2023-01-25T20:31:46.075Z,0.70
2023-01-25T20:34:17.074Z,0.80
2023-01-25T20:36:46.819Z,0.90
2023-01-25T20:39:27.573Z,0.90
2023-01-25T20:42:00.370Z,0.90
2023-01-25T20:44:31.530Z,0.80
2023-01-25T20:47:00.620Z,0.80
2023-01-25T20:49:33.605Z,0.90
2023-01-25T20:52:08.321Z,0.90
2023-01-25T20:54:38.989Z,0.90
2023-01-25T20:57:10.572Z,0.90
2023-01-25T20:59:40.916Z,0.90
2023-01-25T21:02:15.480Z,0.90
2023-01-25T21:04:44.168Z,0.90
2023-01-25T21:07:13.914Z,0.80
2023-01-25T21:09:44.131Z,0.80
2023-01-25T21:12:13.179Z,0.80
2023-01-25T21:14:42.369Z,0.80
2023-01-25T21:17:11.608Z,0.90
2023-01-25T21:19:40.111Z,0.90
2023-01-25T21:22:08.752Z,0.90
2023-01-25T21:24:37.312Z,0.90
2023-01-25T21:27:08.157Z,0.90
2023-01-25T21:29:36.603Z,0.80
2023-01-25T21:32:05.601Z,0.90
2023-01-25T21:34:34.042Z,0.90
2023-01-25T21:37:02.429Z,0.90
2023-01-25T21:39:31.419Z,0.90
2023-01-25T21:41:59.904Z,1.00
2023-01-25T21:44:47.318Z,0.90
2023-01-25T21:47:29.462Z,0.90
2023-01-25T21:50:15.781Z,0.90
2023-01-25T21:52:44.211Z,0.90
2023-01-25T21:55:12.676Z,0.90
2023-01-25T21:57:47.522Z,0.90
2023-01-25T22:00:18.806Z,0.90
2023-01-25T22:02:47.258Z,0.90
2023-01-25T22:05:15.889Z,0.90
2023-01-25T22:07:44.418Z,0.90
2023-01-25T22:10:13.301Z,1.00
2023-01-25T22:12:41.932Z,1.00
2023-01-25T22:15:11.034Z,1.00
2023-01-25T22:17:40.849Z,1.00
2023-01-25T22:20:11.357Z,1.10
2023-01-25T22:22:39.998Z,1.10
2023-01-25T22:25:08.999Z,1.10
2023-01-25T22:27:47.850Z,1.20
2023-01-25T22:30:16.341Z,1.20
2023-01-25T22:32:46.232Z,1.20
2023-01-25T22:35:14.747Z,1.20
2023-01-25T22:37:43.207Z,1.20
2023-01-25T22:40:13.219Z,1.20
2023-01-25T22:42:41.899Z,1.10
2023-01-25T22:45:10.945Z,1.10
2023-01-25T22:47:41.489Z,1.10
2023-01-25T22:50:13.028Z,1.10
2023-01-25T22:52:41.588Z,1.10
2023-01-25T22:55:10.904Z,1.10
2023-01-25T22:57:39.371Z,1.10
2023-01-25T23:00:09.351Z,1.20
2023-01-25T23:02:38.122Z,1.20
2023-01-25T23:05:07.639Z,1.20
2023-01-25T23:07:37.493Z,1.20
2023-01-25T23:10:06.949Z,1.20
2023-01-25T23:12:35.466Z,1.20
2023-01-25T23:15:07.201Z,1.20
2023-01-25T23:17:53.151Z,1.20
2023-01-25T23:20:21.698Z,1.20
2023-01-25T23:22:52.438Z,1.20
2023-01-25T23:25:20.908Z,1.20
2023-01-25T23:27:49.529Z,1.20
2023-01-25T23:30:18.457Z,1.20
2023-01-25T23:32:49.445Z,1.10
2023-01-25T23:35:18.939Z,1.10
2023-01-25T23:37:48.591Z,1.10
2023-01-25T23:40:18.830Z,1.20
2023-01-25T23:42:47.248Z,1.10
2023-01-25T23:45:15.760Z,1.10
2023-01-25T23:47:44.277Z,1.10
2023-01-25T23:50:13.568Z,1.10
2023-01-25T23:52:42.137Z,1.20
2023-01-25T23:55:11.393Z,1.20
2023-01-25T23:57:41.218Z,1.20
